createdAt,value
2023-05-16T00:02:14.461Z,99.90
2023-05-16T00:04:42.663Z,99.90
2023-05-16T00:07:10.768Z,99.90
2023-05-16T00:09:40.213Z,99.90
2023-05-16T00:12:09.646Z,99.90
2023-05-16T00:14:37.916Z,99.90
2023-05-16T00:17:11.827Z,99.90
2023-05-16T00:19:42.060Z,99.90
2023-05-16T00:22:11.428Z,99.90
2023-05-16T00:24:40.979Z,99.90
2023-05-16T00:27:09.140Z,99.90
2023-05-16T00:29:37.248Z,99.90
2023-05-16T00:32:08.706Z,99.90
2023-05-16T00:34:37.435Z,99.90
2023-05-16T00:37:06.226Z,99.90
2023-05-16T00:39:34.307Z,99.90
2023-05-16T00:42:03.874Z,99.90
2023-05-16T00:44:31.996Z,99.90
2023-05-16T00:47:02.629Z,99.90
2023-05-16T00:49:31.078Z,99.90
2023-05-16T00:52:00.133Z,99.90
2023-05-16T00:54:29.326Z,99.90
2023-05-16T00:56:57.931Z,99.90
2023-05-16T00:59:28.253Z,99.90
2023-05-16T01:01:56.931Z,99.90
2023-05-16T01:04:25.787Z,99.90
2023-05-16T01:06:55.385Z,99.90
2023-05-16T01:09:23.632Z,99.90
2023-05-16T01:11:57.023Z,99.90
2023-05-16T01:14:39.029Z,99.90
2023-05-16T01:17:12.656Z,99.90
2023-05-16T01:19:57.939Z,99.90
2023-05-16T01:22:38.633Z,99.90
2023-05-16T01:25:23.321Z,99.90
2023-05-16T01:27:54.206Z,99.90
2023-05-16T01:30:22.684Z,99.90
2023-05-16T01:32:51.391Z,99.90
2023-05-16T01:35:20.016Z,99.90
2023-05-16T01:37:58.363Z,99.90
2023-05-16T01:40:35.137Z,99.90
2023-05-16T01:43:09.856Z,99.90
2023-05-16T01:45:44.192Z,99.90
2023-05-16T01:48:17.922Z,99.90
2023-05-16T01:50:50.053Z,99.90
2023-05-16T01:53:23.578Z,99.90
2023-05-16T01:55:53.830Z,99.90
2023-05-16T01:58:27.467Z,99.90
2023-05-16T02:00:55.797Z,99.90
2023-05-16T02:03:24.011Z,99.90
2023-05-16T02:05:52.324Z,99.90
2023-05-16T02:08:20.617Z,99.90
2023-05-16T02:10:48.838Z,99.90
2023-05-16T02:13:17.017Z,99.90
2023-05-16T02:15:46.736Z,99.90
2023-05-16T02:18:14.900Z,99.90
2023-05-16T02:20:43.002Z,99.90
2023-05-16T02:23:11.109Z,99.90
2023-05-16T02:25:39.226Z,99.90
2023-05-16T02:28:07.915Z,99.90
2023-05-16T02:30:36.062Z,99.90
2023-05-16T02:33:05.700Z,99.90
2023-05-16T02:35:33.928Z,99.90
2023-05-16T02:38:02.084Z,99.90
2023-05-16T02:40:30.243Z,99.90
2023-05-16T02:42:58.370Z,99.90
2023-05-16T02:45:27.104Z,99.90
2023-05-16T02:47:55.630Z,99.90
2023-05-16T02:50:25.306Z,99.90
2023-05-16T02:52:53.513Z,99.90
2023-05-16T02:55:22.512Z,99.90
2023-05-16T02:57:51.861Z,99.90
2023-05-16T03:00:20.566Z,99.90
2023-05-16T03:02:48.995Z,99.90
2023-05-16T03:05:17.346Z,99.90
2023-05-16T03:07:46.853Z,99.90
2023-05-16T03:10:15.001Z,99.90
2023-05-16T03:12:43.199Z,99.90
2023-05-16T03:15:11.899Z,99.90
2023-05-16T03:17:40.118Z,99.90
2023-05-16T03:20:11.473Z,99.90
2023-05-16T03:22:40.442Z,99.90
2023-05-16T03:25:10.617Z,99.90
2023-05-16T03:27:38.744Z,99.90
2023-05-16T03:30:08.756Z,99.90
2023-05-16T03:32:36.935Z,99.90
2023-05-16T03:35:05.389Z,99.90
2023-05-16T03:37:33.668Z,99.90
2023-05-16T03:40:03.515Z,99.90
2023-05-16T03:42:33.151Z,99.90
2023-05-16T03:45:01.224Z,99.90
2023-05-16T03:47:31.965Z,99.90
2023-05-16T03:50:00.282Z,99.90
2023-05-16T03:52:28.442Z,99.90
2023-05-16T03:54:57.048Z,99.90
2023-05-16T03:57:25.323Z,99.90
2023-05-16T03:59:54.839Z,99.90
2023-05-16T04:02:23.252Z,99.90
2023-05-16T04:04:51.402Z,99.90
2023-05-16T04:07:21.267Z,99.90
2023-05-16T04:09:50.670Z,99.90
2023-05-16T04:12:18.933Z,99.90
2023-05-16T04:14:47.220Z,99.90
2023-05-16T04:17:16.794Z,99.90
2023-05-16T04:19:45.336Z,99.90
2023-05-16T04:22:13.450Z,99.90
2023-05-16T04:24:41.553Z,99.90
2023-05-16T04:27:09.880Z,99.90
2023-05-16T04:29:38.115Z,99.90
2023-05-16T04:32:07.530Z,99.90
2023-05-16T04:34:39.771Z,99.90
2023-05-16T04:37:09.520Z,99.90
2023-05-16T04:39:37.930Z,99.90
2023-05-16T04:42:07.450Z,99.90
2023-05-16T04:44:35.615Z,99.90
2023-05-16T04:47:03.770Z,99.90
2023-05-16T04:49:31.885Z,99.90
2023-05-16T04:52:01.394Z,99.70
2023-05-16T04:54:29.583Z,99.90
2023-05-16T04:56:57.656Z,99.90
2023-05-16T04:59:25.773Z,99.90
2023-05-16T05:01:54.558Z,99.30
2023-05-16T05:04:23.401Z,99.60
2023-05-16T05:06:51.661Z,99.00
2023-05-16T05:09:21.362Z,98.40
2023-05-16T05:11:49.478Z,98.80
2023-05-16T05:14:17.754Z,97.10
2023-05-16T05:16:45.841Z,97.40
2023-05-16T05:19:13.994Z,95.50
2023-05-16T05:21:42.297Z,95.40
2023-05-16T05:24:10.541Z,92.50
2023-05-16T05:26:40.141Z,98.90
2023-05-16T05:29:08.645Z,99.60
2023-05-16T05:31:36.786Z,95.90
2023-05-16T05:34:05.048Z,97.50
2023-05-16T05:36:33.189Z,95.80
2023-05-16T05:39:01.345Z,96.10
2023-05-16T05:41:29.459Z,96.30
2023-05-16T05:43:59.096Z,96.60
2023-05-16T05:46:27.705Z,96.30
2023-05-16T05:48:56.060Z,96.20
2023-05-16T05:51:24.215Z,91.90
2023-05-16T05:53:52.381Z,93.10
2023-05-16T05:56:21.454Z,93.40
2023-05-16T05:58:49.660Z,91.70
2023-05-16T06:01:21.126Z,93.90
2023-05-16T06:03:49.430Z,92.10
2023-05-16T06:06:18.471Z,93.60
2023-05-16T06:08:46.613Z,94.00
2023-05-16T06:11:14.766Z,93.70
2023-05-16T06:13:42.892Z,91.60
2023-05-16T06:16:11.053Z,92.20
2023-05-16T06:18:40.625Z,91.60
2023-05-16T06:21:08.792Z,94.40
2023-05-16T06:23:37.084Z,90.90
2023-05-16T06:26:05.659Z,92.00
2023-05-16T06:28:33.866Z,91.30
2023-05-16T06:31:02.035Z,92.30
2023-05-16T06:33:30.213Z,93.20
2023-05-16T06:35:59.751Z,91.80
2023-05-16T06:38:28.008Z,90.20
2023-05-16T06:40:56.151Z,92.00
2023-05-16T06:43:24.333Z,90.70
2023-05-16T06:45:52.472Z,89.20
2023-05-16T06:48:20.682Z,90.50
2023-05-16T06:50:49.935Z,90.30
2023-05-16T06:53:19.536Z,89.70
2023-05-16T06:55:48.566Z,83.80
2023-05-16T06:58:16.723Z,80.40
2023-05-16T07:00:45.131Z,84.60
2023-05-16T07:03:13.486Z,79.20
2023-05-16T07:05:41.919Z,81.80
2023-05-16T07:08:12.251Z,81.20
2023-05-16T07:10:41.889Z,76.10
2023-05-16T07:13:10.092Z,84.40
2023-05-16T07:15:38.243Z,80.20
2023-05-16T07:18:06.435Z,75.00
2023-05-16T07:20:34.719Z,72.30
2023-05-16T07:23:02.860Z,81.30
2023-05-16T07:25:31.087Z,68.80
2023-05-16T07:28:01.025Z,76.70
2023-05-16T07:30:29.603Z,78.80
2023-05-16T07:32:58.086Z,80.10
2023-05-16T07:35:26.432Z,71.30
2023-05-16T07:37:54.802Z,68.40
2023-05-16T07:40:25.962Z,73.90
2023-05-16T07:42:54.147Z,78.00
2023-05-16T07:45:23.893Z,80.60
2023-05-16T07:47:52.163Z,80.70
2023-05-16T07:50:20.442Z,74.50
2023-05-16T07:52:48.617Z,74.20
2023-05-16T07:55:17.003Z,74.90
2023-05-16T07:57:45.453Z,73.00
2023-05-16T08:00:14.710Z,75.20
2023-05-16T08:02:44.498Z,78.50
2023-05-16T08:05:12.775Z,76.80
2023-05-16T08:07:40.992Z,71.10
2023-05-16T08:10:12.513Z,76.70
2023-05-16T08:12:41.643Z,67.90
2023-05-16T08:15:11.257Z,69.50
2023-05-16T08:17:39.512Z,69.60
2023-05-16T08:20:10.091Z,66.10
2023-05-16T08:22:38.254Z,75.70
2023-05-16T08:25:08.008Z,74.90
2023-05-16T08:27:36.164Z,74.10
2023-05-16T08:30:04.964Z,70.80
2023-05-16T08:32:33.272Z,69.60
2023-05-16T08:35:01.615Z,64.10
2023-05-16T08:37:31.180Z,64.90
2023-05-16T08:39:59.941Z,68.00
2023-05-16T08:42:28.531Z,64.70
2023-05-16T08:44:56.736Z,68.90
2023-05-16T08:47:28.053Z,69.50
2023-05-16T08:49:59.442Z,69.00
2023-05-16T08:52:32.493Z,71.60
2023-05-16T08:55:10.976Z,70.50
2023-05-16T08:57:40.284Z,72.70
2023-05-16T09:00:13.638Z,74.40
2023-05-16T09:02:42.852Z,73.70
2023-05-16T09:05:13.886Z,64.30
2023-05-16T09:07:44.168Z,69.00
2023-05-16T09:10:13.138Z,65.90
2023-05-16T09:12:42.322Z,66.80
2023-05-16T09:15:11.870Z,67.80
2023-05-16T09:17:44.490Z,70.00
2023-05-16T09:20:14.927Z,67.60
2023-05-16T09:22:53.117Z,75.80
2023-05-16T09:25:30.217Z,70.80
2023-05-16T09:28:01.435Z,75.60
2023-05-16T09:30:31.610Z,72.20
2023-05-16T09:33:00.401Z,69.80
2023-05-16T09:38:01.166Z,70.70
2023-05-16T09:40:29.330Z,72.80
2023-05-16T09:43:07.167Z,71.50
2023-05-16T09:45:37.140Z,75.80
2023-05-16T09:48:09.592Z,75.70
2023-05-16T09:50:38.743Z,76.00
2023-05-16T09:53:07.113Z,73.80
2023-05-16T09:55:35.536Z,77.20
2023-05-16T09:58:05.056Z,76.00
2023-05-16T10:00:35.144Z,69.60
2023-05-16T10:03:05.914Z,76.10
2023-05-16T10:05:35.749Z,75.80
2023-05-16T10:08:05.293Z,71.00
2023-05-16T10:10:37.472Z,73.40
2023-05-16T10:13:08.856Z,69.80
2023-05-16T10:15:38.049Z,67.80
2023-05-16T10:18:11.785Z,70.20
2023-05-16T10:20:42.349Z,71.90
2023-05-16T10:23:13.716Z,71.30
2023-05-16T10:25:44.657Z,60.00
2023-05-16T10:28:15.054Z,70.50
2023-05-16T10:30:44.823Z,74.60
2023-05-16T10:33:15.082Z,79.30
2023-05-16T10:35:43.891Z,76.50
2023-05-16T10:38:13.810Z,77.70
2023-05-16T10:40:42.608Z,77.70
2023-05-16T10:43:11.071Z,84.40
2023-05-16T10:45:43.074Z,87.30
2023-05-16T10:48:15.410Z,84.90
2023-05-16T10:50:47.360Z,74.50
2023-05-16T10:53:17.576Z,82.40
2023-05-16T10:56:10.179Z,86.30
2023-05-16T10:58:43.679Z,79.50
2023-05-16T11:01:24.452Z,83.90
2023-05-16T11:04:12.161Z,76.20
2023-05-16T11:06:54.800Z,82.80
2023-05-16T11:09:26.578Z,79.30
2023-05-16T11:12:02.938Z,81.60
2023-05-16T11:14:38.346Z,75.60
2023-05-16T11:17:12.124Z,78.20
2023-05-16T11:19:44.997Z,76.10
2023-05-16T11:22:25.014Z,77.40
2023-05-16T11:24:58.576Z,73.90
2023-05-16T11:27:28.599Z,76.80
2023-05-16T11:30:03.765Z,71.70
2023-05-16T11:32:36.363Z,70.00
2023-05-16T11:35:05.293Z,75.50
2023-05-16T11:37:33.507Z,72.80
2023-05-16T11:40:02.444Z,72.70
2023-05-16T11:42:34.027Z,74.60
2023-05-16T11:45:07.236Z,74.10
2023-05-16T11:47:38.670Z,76.60
2023-05-16T11:50:10.034Z,72.60
2023-05-16T11:52:38.875Z,74.30
2023-05-16T11:55:08.082Z,75.40
2023-05-16T11:57:36.590Z,78.50
2023-05-16T12:00:08.120Z,76.70
2023-05-16T12:02:37.879Z,77.30
2023-05-16T12:05:10.017Z,79.80
2023-05-16T12:07:38.567Z,79.90
2023-05-16T12:10:08.902Z,81.70
2023-05-16T12:12:38.028Z,79.60
2023-05-16T12:15:08.064Z,79.50
2023-05-16T12:17:38.456Z,79.00
2023-05-16T12:20:11.610Z,81.00
2023-05-16T12:22:41.227Z,73.50
2023-05-16T12:25:23.955Z,76.80
2023-05-16T12:27:53.794Z,73.80
2023-05-16T12:30:24.124Z,76.80
2023-05-16T12:32:58.729Z,77.60
2023-05-16T12:35:27.342Z,74.00
2023-05-16T12:37:56.212Z,73.40
2023-05-16T12:40:30.804Z,74.40
2023-05-16T12:42:59.363Z,73.90
2023-05-16T12:45:28.968Z,73.50
2023-05-16T12:47:58.586Z,78.40
2023-05-16T12:50:29.087Z,80.20
2023-05-16T12:53:01.935Z,81.20
2023-05-16T12:55:30.129Z,80.10
2023-05-16T12:58:01.674Z,78.00
2023-05-16T13:00:29.915Z,80.20
2023-05-16T13:02:59.676Z,81.90
2023-05-16T13:05:27.918Z,82.20
2023-05-16T13:07:56.095Z,80.70
2023-05-16T13:10:26.106Z,86.50
2023-05-16T13:12:54.374Z,81.50
2023-05-16T13:15:22.978Z,82.20
2023-05-16T13:17:51.315Z,81.00
2023-05-16T13:20:21.362Z,77.00
2023-05-16T13:22:49.632Z,79.50
2023-05-16T13:25:17.910Z,81.60
2023-05-16T13:27:46.398Z,80.80
2023-05-16T13:30:14.659Z,83.60
2023-05-16T13:32:42.968Z,81.30
2023-05-16T13:35:11.201Z,77.60
2023-05-16T13:37:41.502Z,80.40
2023-05-16T13:40:11.227Z,78.60
2023-05-16T13:42:39.785Z,78.30
2023-05-16T13:45:09.018Z,80.70
2023-05-16T13:47:37.758Z,79.00
2023-05-16T13:50:09.969Z,77.50
2023-05-16T13:52:40.418Z,77.40
2023-05-16T13:55:09.575Z,77.40
2023-05-16T13:57:38.046Z,75.90
2023-05-16T14:00:35.424Z,74.70
2023-05-16T14:03:00.610Z,72.60
2023-05-16T14:05:29.003Z,74.40
2023-05-16T14:07:58.584Z,73.80
2023-05-16T14:10:27.161Z,77.00
2023-05-16T14:12:55.817Z,71.20
2023-05-16T14:15:23.990Z,76.40
2023-05-16T14:17:52.206Z,75.40
2023-05-16T14:20:20.453Z,71.80
2023-05-16T14:22:48.683Z,72.70
2023-05-16T14:25:18.379Z,66.80
2023-05-16T14:27:46.700Z,73.20
2023-05-16T14:30:15.265Z,69.40
2023-05-16T14:32:43.519Z,72.60
2023-05-16T14:35:11.903Z,71.20
2023-05-16T14:37:40.079Z,73.40
2023-05-16T14:40:10.423Z,72.90
2023-05-16T14:42:40.070Z,68.40
2023-05-16T14:45:09.115Z,69.70
2023-05-16T14:47:37.758Z,72.40
2023-05-16T14:50:07.125Z,70.50
2023-05-16T14:52:35.357Z,76.70
2023-05-16T14:55:03.494Z,75.30
2023-05-16T14:57:31.817Z,73.40
2023-05-16T15:00:01.446Z,72.60
2023-05-16T15:02:29.841Z,73.70
2023-05-16T15:04:58.170Z,74.90
2023-05-16T15:07:26.556Z,74.50
2023-05-16T15:09:54.705Z,78.00
2023-05-16T15:12:22.864Z,73.00
2023-05-16T15:14:51.038Z,74.00
2023-05-16T15:17:20.621Z,67.20
2023-05-16T15:19:49.057Z,71.70
2023-05-16T15:22:17.211Z,71.30
2023-05-16T15:24:45.476Z,69.90
2023-05-16T15:27:13.650Z,65.10
2023-05-16T15:29:41.778Z,68.40
2023-05-16T15:32:11.362Z,69.30
2023-05-16T15:34:40.995Z,70.00
2023-05-16T15:37:09.474Z,70.50
2023-05-16T15:39:37.621Z,70.50
2023-05-16T15:44:37.639Z,77.00
2023-05-16T15:47:06.355Z,74.60
2023-05-16T15:49:34.507Z,74.20
2023-05-16T15:52:04.058Z,73.70
2023-05-16T15:54:32.233Z,74.70
2023-05-16T15:57:00.543Z,70.90
2023-05-16T15:59:28.828Z,74.20
2023-05-16T16:01:57.663Z,71.90
2023-05-16T16:04:26.114Z,75.30
2023-05-16T16:06:54.373Z,74.00
2023-05-16T16:09:24.060Z,75.90
2023-05-16T16:11:56.115Z,76.60
2023-05-16T16:14:25.337Z,74.60
2023-05-16T16:16:53.558Z,72.10
2023-05-16T16:19:22.974Z,72.40
2023-05-16T16:21:51.630Z,74.80
2023-05-16T16:24:21.175Z,73.00
2023-05-16T16:26:50.746Z,77.00
2023-05-16T16:29:18.901Z,75.60
2023-05-16T16:31:47.363Z,77.20
2023-05-16T16:34:15.642Z,77.00
2023-05-16T16:36:43.811Z,76.60
2023-05-16T16:39:11.966Z,76.90
2023-05-16T16:41:40.127Z,76.30
2023-05-16T16:44:09.673Z,77.80
2023-05-16T16:46:38.827Z,76.30
2023-05-16T16:49:07.015Z,76.50
2023-05-16T16:51:35.815Z,72.40
2023-05-16T16:54:04.130Z,75.70
2023-05-16T16:56:32.327Z,78.00
2023-05-16T16:59:00.506Z,77.90
2023-05-16T17:01:32.018Z,73.00
2023-05-16T17:04:01.729Z,75.50
2023-05-16T17:06:30.244Z,77.20
2023-05-16T17:09:02.376Z,77.60
2023-05-16T17:11:30.846Z,76.60
2023-05-16T17:13:59.774Z,78.00
2023-05-16T17:16:29.724Z,79.30
2023-05-16T17:18:57.979Z,76.90
2023-05-16T17:21:26.791Z,80.90
2023-05-16T17:23:55.221Z,82.30
2023-05-16T17:26:23.376Z,83.20
2023-05-16T17:28:51.537Z,80.80
2023-05-16T17:31:19.952Z,81.60
2023-05-16T17:33:49.724Z,82.90
2023-05-16T17:36:18.134Z,82.80
2023-05-16T17:38:46.344Z,85.00
2023-05-16T17:41:15.159Z,83.60
2023-05-16T17:43:45.318Z,83.40
2023-05-16T17:46:14.421Z,85.00
2023-05-16T17:48:43.696Z,87.20
2023-05-16T17:51:13.213Z,86.40
2023-05-16T17:53:41.671Z,84.00
2023-05-16T17:56:10.092Z,83.80
2023-05-16T17:58:39.121Z,83.50
2023-05-16T18:01:09.204Z,86.30
2023-05-16T18:03:38.640Z,85.40
2023-05-16T18:06:07.300Z,87.70
2023-05-16T18:08:36.921Z,88.00
2023-05-16T18:11:05.145Z,86.30
2023-05-16T18:13:33.541Z,88.60
2023-05-16T18:16:02.286Z,88.40
2023-05-16T18:18:31.758Z,88.80
2023-05-16T18:21:01.203Z,88.10
2023-05-16T18:23:29.399Z,88.90
2023-05-16T18:25:59.005Z,85.40
2023-05-16T18:28:27.161Z,90.20
2023-05-16T18:30:55.329Z,86.80
2023-05-16T18:33:23.531Z,90.20
2023-05-16T18:35:51.720Z,90.50
2023-05-16T18:38:31.395Z,90.10
2023-05-16T18:41:02.898Z,88.80
2023-05-16T18:43:35.164Z,83.90
2023-05-16T18:46:03.661Z,84.10
2023-05-16T18:48:32.471Z,84.30
2023-05-16T18:51:02.231Z,85.00
2023-05-16T18:53:30.902Z,86.00
2023-05-16T18:55:59.434Z,86.20
2023-05-16T18:58:29.107Z,82.40
2023-05-16T19:00:57.398Z,83.40
2023-05-16T19:03:25.859Z,84.30
2023-05-16T19:05:54.338Z,87.80
2023-05-16T19:08:25.550Z,86.80
2023-05-16T19:10:56.919Z,89.30
2023-05-16T19:13:25.170Z,88.40
2023-05-16T19:15:54.836Z,87.90
2023-05-16T19:18:23.211Z,86.90
2023-05-16T19:20:52.506Z,84.20
2023-05-16T19:23:20.729Z,85.10
2023-05-16T19:25:49.210Z,84.70
2023-05-16T19:28:17.834Z,84.60
2023-05-16T19:30:46.110Z,88.00
2023-05-16T19:33:19.551Z,87.60
2023-05-16T19:35:53.679Z,84.50
2023-05-16T19:38:24.435Z,84.40
2023-05-16T19:40:53.104Z,89.20
2023-05-16T19:43:21.260Z,89.10
2023-05-16T19:45:49.521Z,89.30
2023-05-16T19:48:19.155Z,90.40
2023-05-16T19:50:47.465Z,91.10
2023-05-16T19:53:15.668Z,91.20
2023-05-16T19:55:43.880Z,93.20
2023-05-16T19:58:15.206Z,92.00
2023-05-16T20:00:43.570Z,91.70
2023-05-16T20:03:11.838Z,91.90
2023-05-16T20:05:41.506Z,90.90
2023-05-16T20:08:11.186Z,90.20
2023-05-16T20:10:41.852Z,88.00
2023-05-16T20:13:10.201Z,91.30
2023-05-16T20:15:38.436Z,90.50
2023-05-16T20:18:20.064Z,93.40
2023-05-16T20:20:49.751Z,92.80
2023-05-16T20:23:17.878Z,90.50
2023-05-16T20:25:46.011Z,91.50
2023-05-16T20:28:14.182Z,93.10
2023-05-16T20:30:42.340Z,93.50
2023-05-16T20:33:10.563Z,92.20
2023-05-16T20:35:38.816Z,91.40
2023-05-16T20:38:08.721Z,93.60
2023-05-16T20:40:36.950Z,91.90
2023-05-16T20:43:05.160Z,93.20
2023-05-16T20:45:33.333Z,92.40
2023-05-16T20:48:01.579Z,93.80
2023-05-16T20:50:31.089Z,93.00
2023-05-16T20:52:59.267Z,94.00
2023-05-16T20:55:29.146Z,93.70
2023-05-16T20:57:57.485Z,93.40
2023-05-16T21:00:25.660Z,92.80
2023-05-16T21:02:53.874Z,92.60
2023-05-16T21:05:34.764Z,93.80
2023-05-16T21:08:02.999Z,92.40
2023-05-16T21:10:32.602Z,93.30
2023-05-16T21:13:00.892Z,95.00
2023-05-16T21:15:29.297Z,93.40
2023-05-16T21:17:57.770Z,93.10
2023-05-16T21:20:28.451Z,92.20
2023-05-16T21:22:56.640Z,93.20
2023-05-16T21:25:25.030Z,93.60
2023-05-16T21:27:54.561Z,94.90
2023-05-16T21:30:22.983Z,92.30
2023-05-16T21:32:51.372Z,91.60
2023-05-16T21:35:19.571Z,93.10
2023-05-16T21:37:47.721Z,91.50
2023-05-16T21:40:18.990Z,92.30
2023-05-16T21:42:47.333Z,92.00
2023-05-16T21:45:16.862Z,88.50
2023-05-16T21:47:45.203Z,90.80
2023-05-16T21:50:14.049Z,90.50
2023-05-16T21:52:42.803Z,84.90
2023-05-16T21:55:11.504Z,90.30
2023-05-16T21:57:39.643Z,90.60
2023-05-16T22:00:09.839Z,90.20
2023-05-16T22:02:39.657Z,91.10
2023-05-16T22:05:08.989Z,90.40
2023-05-16T22:07:37.356Z,91.10
2023-05-16T22:10:07.401Z,93.20
2023-05-16T22:12:35.664Z,92.60
2023-05-16T22:15:03.949Z,92.90
2023-05-16T22:17:32.307Z,91.70
2023-05-16T22:20:02.524Z,93.40
2023-05-16T22:22:30.710Z,93.10
2023-05-16T22:24:58.850Z,90.60
2023-05-16T22:27:26.986Z,91.60
2023-05-16T22:29:55.093Z,91.50
2023-05-16T22:32:23.396Z,94.20
2023-05-16T22:34:52.771Z,94.90
2023-05-16T22:37:22.332Z,95.60
2023-05-16T22:39:50.477Z,94.60
2023-05-16T22:42:18.606Z,96.30
2023-05-16T22:44:46.794Z,96.40
2023-05-16T22:47:14.957Z,95.50
2023-05-16T22:49:43.444Z,94.30
2023-05-16T22:52:11.613Z,93.10
2023-05-16T22:54:42.176Z,94.20
2023-05-16T22:57:10.459Z,94.40
2023-05-16T22:59:38.589Z,93.90
2023-05-16T23:02:06.827Z,94.60
2023-05-16T23:04:35.016Z,94.20
2023-05-16T23:07:03.448Z,98.60
2023-05-16T23:09:31.721Z,98.40
2023-05-16T23:12:01.670Z,99.40
2023-05-16T23:14:29.835Z,97.00
2023-05-16T23:16:57.957Z,97.90
2023-05-16T23:19:26.192Z,99.90
2023-05-16T23:21:54.416Z,99.90
2023-05-16T23:24:22.726Z,99.90
2023-05-16T23:26:50.846Z,99.90
2023-05-16T23:29:20.397Z,99.90
2023-05-16T23:31:48.559Z,99.90
2023-05-16T23:34:16.792Z,99.90
2023-05-16T23:36:44.974Z,99.90
2023-05-16T23:39:13.129Z,99.90
2023-05-16T23:41:41.260Z,99.90
2023-05-16T23:44:09.403Z,99.90
2023-05-16T23:46:38.959Z,99.90
2023-05-16T23:49:07.074Z,99.90
2023-05-16T23:51:48.782Z,99.90
2023-05-16T23:54:23.306Z,99.90
2023-05-16T23:56:51.494Z,99.90
2023-05-16T23:59:20.337Z,99.90
